Spokane, WA

8:38 AM PDT on May 03, 2015 (GMT -0700)
Hayford | | Change Station
CLOSE
Current Station
Personal Weather Station
Location: Cheney, WA
Elevation: 2441 ft
Nearby Weather Stations

Elev 2441 ft 47.58 °N, 117.54 °W | Updated 19 minutes ago

Clear
Clear
55.8 °F
Feels Like 55.8 °F
N
5.3
Wind Variable Wind from ENE

Today
High -- | Low -- °F
--% Chance of Precip.
Yesterday
High -- | Low -- °F
Precip. -- in
5:30 AM 8:05 PM
Full, 100% visible
Pressure 30.00 in
Visibility 10.0 miles
Clouds Clear
Dew Point 29 °F
Humidity 35%
Rainfall 0.00 in
Snow Depth Not available.
UV 2 out of 12
Pollen 9.90 out of 12
Air Quality Not available.
Flu Activity Sporadic
METAR KSKA 031458Z AUTO 04010KT 10SM CLR 10/M05 A2999 RMK AO2 SLP158 T00951046 52009

More Conditions Fewer Conditions

Pressure 30.00 in
Visibility 10.0 miles
Clouds Clear
Dew Point 29 °F
Humidity 35%
Rainfall 0.00 in
Snow Depth Not available.
UV 2 out of 12
Pollen 9.90 out of 12
Air Quality Not available.
Flu Activity Sporadic
METAR KSKA 031458Z AUTO 04010KT 10SM CLR 10/M05 A2999 RMK AO2 SLP158 T00951046 52009

More Conditions Fewer Conditions

Nepal has a long way to go to dig out and rebuild from a devastating earthquake. We have teamed up with several charities and organizations to make contributing to the relief effort as easy as possible.
How you can help: Portlight Strategies | Red Cross

10-Day Weather Forecast

Almanac

Astronomy

May. 03, 2015 Rise Set
Actual Time
Civil Twilight
Nautical Twilight
Astronomical Twilight
Moon
Length of Visible Light
Length of Day
Tomorrow will be .
, % of the Moon is Illuminated

Today's Extremes

State Highs State Lows

Community

WunderPhotos

Upload Photos

1,818,255 photos uploaded!

WunderBlogs® & News

Nearby

Air Quality

  Air Quality AQ Index Pollutant
Not available.

Snow Depth

Station Depth Elevation

Earthquake Activity

City Distance Mag. Time & Date
Minimum magnitude displayed is 2.5.

Coastal Water Temperatures

Place Temperature

Stations

Nearby Weather Stations

Station Location Temp. Windchill Dew Point Humidity Wind Precip. Elev Updated Type